createdAt,value
2022-11-25T00:01:34.107Z,17.45
2022-11-25T00:04:01.750Z,11.68
2022-11-25T00:06:34.933Z,10.23
2022-11-25T00:09:09.699Z,11.57
2022-11-25T00:11:39.312Z,14.70
2022-11-25T00:14:08.265Z,12.13
2022-11-25T00:16:35.358Z,10.20
2022-11-25T00:19:02.359Z,10.82
2022-11-25T00:21:33.311Z,8.35
2022-11-25T00:24:06.600Z,12.18
2022-11-25T00:26:35.664Z,7.93
2022-11-25T00:29:06.873Z,12.35
2022-11-25T00:31:38.290Z,10.15
2022-11-25T00:34:05.858Z,10.80
2022-11-25T00:36:35.759Z,15.23
2022-11-25T00:39:08.261Z,13.73
2022-11-25T00:41:53.908Z,14.13
2022-11-25T00:44:37.823Z,17.77
2022-11-25T00:47:18.784Z,15.40
2022-11-25T00:49:51.864Z,13.23
2022-11-25T00:52:22.312Z,14.02
2022-11-25T00:54:50.424Z,18.08
2022-11-25T00:57:21.045Z,11.98
2022-11-25T00:59:48.876Z,15.45
2022-11-25T01:02:18.326Z,13.63
2022-11-25T01:04:46.183Z,11.95
2022-11-25T01:07:16.346Z,13.18
2022-11-25T01:09:43.374Z,13.07
2022-11-25T01:12:10.543Z,14.02
2022-11-25T01:14:38.349Z,15.35
2022-11-25T01:17:05.632Z,10.68
2022-11-25T01:19:33.171Z,11.25
2022-11-25T01:22:00.754Z,12.88
2022-11-25T01:24:28.077Z,11.52
2022-11-25T01:26:55.984Z,10.20
2022-11-25T01:29:24.240Z,13.75
2022-11-25T01:31:56.316Z,10.07
2022-11-25T01:34:26.608Z,15.23
2022-11-25T01:36:57.576Z,10.82
2022-11-25T01:39:32.080Z,12.77
2022-11-25T01:42:00.961Z,9.00
2022-11-25T01:44:31.246Z,15.70
2022-11-25T01:46:58.962Z,12.40
2022-11-25T01:49:37.315Z,11.43
2022-11-25T01:52:15.529Z,8.35
2022-11-25T01:54:55.226Z,13.35
2022-11-25T01:57:47.025Z,10.85
2022-11-25T02:00:18.325Z,12.60
2022-11-25T02:02:46.893Z,10.43
2022-11-25T02:05:20.050Z,11.23
2022-11-25T02:07:51.382Z,12.07
2022-11-25T02:10:25.820Z,9.15
2022-11-25T02:12:53.429Z,13.65
2022-11-25T02:15:21.970Z,7.95
2022-11-25T02:17:49.719Z,17.80
2022-11-25T02:20:20.966Z,10.80
2022-11-25T02:23:15.439Z,10.52
2022-11-25T02:25:46.853Z,11.85
2022-11-25T02:28:27.651Z,10.77
2022-11-25T02:30:55.199Z,7.88
2022-11-25T02:33:24.128Z,13.38
2022-11-25T02:35:57.288Z,13.48
2022-11-25T02:38:39.785Z,8.55
2022-11-25T02:41:17.012Z,8.05
2022-11-25T02:43:47.441Z,9.88
2022-11-25T02:46:22.273Z,8.52
2022-11-25T02:49:09.303Z,8.93
2022-11-25T02:51:37.475Z,6.20
2022-11-25T02:54:05.428Z,9.27
2022-11-25T02:56:34.746Z,7.85
2022-11-25T02:59:02.152Z,15.25
2022-11-25T03:01:31.363Z,11.85
2022-11-25T03:03:59.393Z,9.50
2022-11-25T03:06:29.665Z,7.90
2022-11-25T03:08:57.421Z,8.45
2022-11-25T03:11:43.528Z,8.27
2022-11-25T03:14:11.102Z,9.48
2022-11-25T03:16:38.589Z,7.65
2022-11-25T03:19:06.045Z,6.13
2022-11-25T03:21:33.415Z,9.82
2022-11-25T03:24:01.098Z,7.57
2022-11-25T03:26:28.411Z,6.30
2022-11-25T03:28:55.747Z,6.22
2022-11-25T03:31:26.225Z,7.78
2022-11-25T03:33:55.299Z,6.47
2022-11-25T03:36:22.677Z,7.20
2022-11-25T03:38:50.057Z,9.70
2022-11-25T03:41:17.829Z,4.63
2022-11-25T03:43:46.030Z,6.38
2022-11-25T03:46:16.079Z,9.80
2022-11-25T03:48:43.645Z,7.25
2022-11-25T03:51:11.051Z,5.63
2022-11-25T03:53:38.520Z,8.50
2022-11-25T03:56:08.126Z,6.80
2022-11-25T03:58:35.888Z,8.48
2022-11-25T04:01:05.415Z,10.27
2022-11-25T04:03:32.664Z,8.70
2022-11-25T04:06:00.283Z,7.78
2022-11-25T04:08:28.835Z,7.90
2022-11-25T04:10:56.340Z,7.13
2022-11-25T04:13:29.607Z,5.20
2022-11-25T04:15:57.490Z,9.60
2022-11-25T04:18:26.168Z,6.53
2022-11-25T04:20:56.471Z,5.38
2022-11-25T04:23:23.830Z,5.97
2022-11-25T04:26:01.898Z,9.52
2022-11-25T04:28:35.057Z,6.32
2022-11-25T04:31:07.547Z,9.15
2022-11-25T04:33:37.529Z,6.38
2022-11-25T04:36:04.743Z,6.50
2022-11-25T04:38:32.183Z,7.57
2022-11-25T04:40:59.762Z,7.53
2022-11-25T04:43:28.592Z,15.38
2022-11-25T04:46:13.895Z,14.05
2022-11-25T04:48:43.113Z,9.50
2022-11-25T04:51:10.633Z,9.90
2022-11-25T04:53:38.294Z,8.55
2022-11-25T04:56:07.153Z,9.60
2022-11-25T04:59:00.679Z,11.68
2022-11-25T05:01:28.361Z,10.00
2022-11-25T05:04:03.874Z,8.98
2022-11-25T05:06:31.217Z,6.80
2022-11-25T05:08:58.578Z,6.25
2022-11-25T05:11:27.076Z,8.55
2022-11-25T05:13:54.573Z,7.32
2022-11-25T05:16:22.140Z,6.97
2022-11-25T05:18:49.515Z,8.05
2022-11-25T05:21:17.775Z,9.15
2022-11-25T05:23:52.959Z,6.75
2022-11-25T05:27:12.571Z,7.95
2022-11-25T05:29:40.146Z,10.23
2022-11-25T05:32:09.379Z,8.52
2022-11-25T05:34:37.830Z,6.03
2022-11-25T05:37:05.907Z,12.20
2022-11-25T05:39:34.965Z,4.45
2022-11-25T05:42:39.541Z,18.45
2022-11-25T05:45:08.986Z,11.55
2022-11-25T05:47:36.815Z,13.50
2022-11-25T05:50:06.091Z,11.75
2022-11-25T05:52:33.530Z,17.90
2022-11-25T05:55:02.171Z,16.60
2022-11-25T05:57:29.504Z,20.02
2022-11-25T06:00:01.978Z,12.77
2022-11-25T06:02:51.464Z,13.05
2022-11-25T06:05:19.908Z,11.93
2022-11-25T06:07:47.409Z,6.82
2022-11-25T06:10:18.192Z,13.45
2022-11-25T06:12:45.714Z,10.90
2022-11-25T06:15:14.919Z,8.88
2022-11-25T06:17:42.683Z,7.32
2022-11-25T06:20:18.822Z,4.57
2022-11-25T06:22:46.638Z,10.50
2022-11-25T06:25:15.226Z,6.72
2022-11-25T06:28:11.127Z,15.50
2022-11-25T06:30:35.389Z,11.80
2022-11-25T06:33:22.163Z,10.30
2022-11-25T06:35:50.251Z,6.55
2022-11-25T06:38:17.608Z,12.13
2022-11-25T06:40:44.973Z,8.32
2022-11-25T06:43:12.457Z,9.10
2022-11-25T06:45:39.735Z,8.00
2022-11-25T06:48:07.161Z,8.23
2022-11-25T06:51:31.149Z,8.57
2022-11-25T06:57:28.043Z,9.35
2022-11-25T06:59:56.215Z,7.55
2022-11-25T07:03:15.682Z,13.48
2022-11-25T07:05:52.723Z,11.95
2022-11-25T07:08:41.249Z,8.70
2022-11-25T07:12:21.779Z,11.18
2022-11-25T07:15:10.552Z,10.57
2022-11-25T07:17:57.911Z,8.88
2022-11-25T07:32:11.273Z,6.00
2022-11-25T07:53:27.747Z,5.68
2022-11-25T07:56:22.958Z,9.00
2022-11-25T07:59:15.858Z,7.67
2022-11-25T08:02:03.498Z,6.32
2022-11-25T08:04:51.017Z,6.40
2022-11-25T08:07:38.528Z,7.22
2022-11-25T08:10:25.989Z,3.70
2022-11-25T08:13:12.337Z,8.43
2022-11-25T08:16:00.511Z,6.85
2022-11-25T08:18:47.168Z,5.97
2022-11-25T08:21:33.236Z,6.20
2022-11-25T08:24:33.866Z,6.80
2022-11-25T08:27:20.099Z,6.75
2022-11-25T08:30:13.606Z,7.70
2022-11-25T08:33:00.807Z,8.90
2022-11-25T08:36:30.254Z,8.23
2022-11-25T08:42:27.955Z,9.40
2022-11-25T08:45:14.435Z,5.50
2022-11-25T08:48:01.054Z,9.30
2022-11-25T08:50:51.723Z,7.43
2022-11-25T08:53:46.886Z,8.63
2022-11-25T08:59:19.100Z,10.70
2022-11-25T09:02:06.565Z,9.35
2022-11-25T09:04:59.727Z,9.00
2022-11-25T09:07:46.075Z,13.90
2022-11-25T09:10:33.305Z,17.55
2022-11-25T09:13:19.277Z,12.87
2022-11-25T09:16:13.405Z,9.80
2022-11-25T09:19:00.139Z,9.82
2022-11-25T09:21:46.049Z,10.55
2022-11-25T09:24:38.451Z,8.45
2022-11-25T09:27:27.293Z,18.73
2022-11-25T09:30:14.299Z,11.00
2022-11-25T09:33:00.132Z,6.13
2022-11-25T09:35:47.336Z,18.48
2022-11-25T09:38:42.777Z,12.43
2022-11-25T09:41:54.944Z,15.10
2022-11-25T09:45:02.502Z,18.13
2022-11-25T09:48:29.648Z,12.30
2022-11-25T09:51:58.844Z,12.13
2022-11-25T09:54:59.134Z,16.27
2022-11-25T09:58:46.649Z,13.40
2022-11-25T10:01:32.789Z,14.30
2022-11-25T10:04:47.458Z,14.05
2022-11-25T10:07:46.483Z,15.90
2022-11-25T10:12:31.055Z,21.13
2022-11-25T10:15:23.810Z,25.27
2022-11-25T10:18:00.209Z,20.33
2022-11-25T10:20:32.643Z,17.08
2022-11-25T10:23:09.811Z,16.80
2022-11-25T10:25:46.510Z,21.17
2022-11-25T10:28:30.626Z,23.05
2022-11-25T10:31:19.693Z,19.02
2022-11-25T10:33:49.605Z,22.25
2022-11-25T10:36:19.203Z,21.27
2022-11-25T10:39:12.540Z,18.17
2022-11-25T10:42:10.160Z,21.25
2022-11-25T10:44:40.763Z,14.05
2022-11-25T10:47:34.967Z,24.60
2022-11-25T10:50:20.320Z,13.40
2022-11-25T10:52:54.843Z,16.90
2022-11-25T10:55:28.654Z,14.70
2022-11-25T10:57:56.376Z,12.85
2022-11-25T11:00:31.430Z,8.10
2022-11-25T11:03:01.758Z,13.32
2022-11-25T11:05:30.676Z,12.43
2022-11-25T11:08:12.665Z,15.90
2022-11-25T11:10:42.659Z,16.70
2022-11-25T11:13:33.144Z,16.50
2022-11-25T11:16:00.542Z,13.73
2022-11-25T11:18:41.225Z,18.27
2022-11-25T11:21:23.600Z,11.45
2022-11-25T11:23:55.533Z,15.10
2022-11-25T11:26:31.543Z,12.05
2022-11-25T11:29:17.107Z,17.90
2022-11-25T11:32:03.850Z,18.35
2022-11-25T11:35:07.060Z,21.02
2022-11-25T11:37:54.410Z,22.63
2022-11-25T11:40:37.130Z,21.67
2022-11-25T11:43:26.201Z,14.30
2022-11-25T11:46:26.805Z,22.83
2022-11-25T11:49:29.077Z,17.52
2022-11-25T11:52:24.027Z,24.52
2022-11-25T11:54:59.053Z,27.10
2022-11-25T11:57:45.437Z,27.95
2022-11-25T12:00:15.159Z,15.43
2022-11-25T12:02:56.374Z,17.77
2022-11-25T12:05:28.901Z,25.50
2022-11-25T12:08:04.248Z,21.08
2022-11-25T12:10:41.355Z,19.13
2022-11-25T12:13:34.110Z,24.55
2022-11-25T12:16:10.065Z,21.75
2022-11-25T12:19:16.212Z,15.30
2022-11-25T12:22:00.504Z,20.15
2022-11-25T12:24:39.499Z,21.92
2022-11-25T12:27:36.558Z,12.02
2022-11-25T12:30:20.070Z,13.05
2022-11-25T12:32:56.538Z,17.85
2022-11-25T12:36:04.793Z,27.48
2022-11-25T12:38:45.745Z,31.40
2022-11-25T12:41:41.465Z,29.00
2022-11-25T12:44:25.789Z,25.70
2022-11-25T12:46:55.883Z,25.55
2022-11-25T12:49:32.712Z,25.30
2022-11-25T12:52:53.377Z,22.92
2022-11-25T12:55:23.088Z,24.67
2022-11-25T12:58:33.059Z,27.75
2022-11-25T13:01:30.414Z,35.30
2022-11-25T13:04:01.023Z,34.80
2022-11-25T13:06:34.732Z,24.70
2022-11-25T13:09:33.297Z,25.13
2022-11-25T13:12:49.516Z,32.10
2022-11-25T13:15:29.578Z,32.72
2022-11-25T13:18:11.175Z,28.55
2022-11-25T13:20:56.448Z,32.40
2022-11-25T13:23:29.618Z,24.33
2022-11-25T13:26:48.257Z,24.70
2022-11-25T13:29:15.466Z,34.15
2022-11-25T13:31:59.931Z,24.17
2022-11-25T13:34:31.117Z,26.13
2022-11-25T13:37:22.875Z,34.95
2022-11-25T13:39:49.815Z,36.50
2022-11-25T13:42:24.687Z,32.15
2022-11-25T13:44:59.273Z,38.30
2022-11-25T13:47:48.437Z,43.50
2022-11-25T13:50:21.545Z,34.47
2022-11-25T13:52:59.031Z,39.40
2022-11-25T13:55:39.114Z,41.08
2022-11-25T13:58:24.204Z,32.88
2022-11-25T14:00:57.277Z,40.33
2022-11-25T14:03:24.910Z,37.40
2022-11-25T14:06:23.146Z,36.55
2022-11-25T14:09:35.367Z,34.10
2022-11-25T14:12:30.442Z,33.17
2022-11-25T14:15:04.771Z,26.27
2022-11-25T14:18:10.337Z,25.67
2022-11-25T14:21:31.530Z,23.23
2022-11-25T14:24:10.060Z,30.52
2022-11-25T14:26:55.621Z,34.30
2022-11-25T14:29:32.125Z,19.40
2022-11-25T14:32:40.619Z,20.27
2022-11-25T14:35:41.678Z,21.65
2022-11-25T14:38:32.865Z,21.67
2022-11-25T14:41:13.195Z,16.85
2022-11-25T14:43:49.995Z,15.35
2022-11-25T14:46:21.546Z,18.80
2022-11-25T14:49:07.656Z,20.90
2022-11-25T14:51:42.332Z,19.65
2022-11-25T14:54:10.156Z,10.80
2022-11-25T14:56:37.918Z,19.13
2022-11-25T14:59:05.373Z,16.70
2022-11-25T15:01:35.023Z,20.65
2022-11-25T15:04:05.154Z,18.10
2022-11-25T15:06:42.509Z,20.38
2022-11-25T15:09:20.236Z,28.27
2022-11-25T15:11:47.820Z,18.23
2022-11-25T15:14:30.470Z,12.68
2022-11-25T15:16:58.751Z,30.00
2022-11-25T15:19:33.851Z,26.02
2022-11-25T15:22:24.073Z,30.48
2022-11-25T15:24:56.235Z,26.50
2022-11-25T15:27:28.871Z,34.88
2022-11-25T15:29:57.305Z,30.40
2022-11-25T15:32:33.780Z,39.55
2022-11-25T15:35:01.771Z,39.72
2022-11-25T15:37:29.325Z,39.85
2022-11-25T15:40:30.146Z,32.30
2022-11-25T15:43:03.132Z,37.08
2022-11-25T15:45:54.792Z,31.73
2022-11-25T15:48:45.272Z,27.90
2022-11-25T15:51:41.481Z,37.33
2022-11-25T15:54:25.829Z,28.67
2022-11-25T15:57:35.892Z,34.20
2022-11-25T16:00:25.054Z,27.90
2022-11-25T16:02:58.416Z,21.92
2022-11-25T16:05:34.654Z,31.33
2022-11-25T16:08:24.329Z,29.85
2022-11-25T16:10:59.179Z,31.15
2022-11-25T16:13:30.195Z,32.33
2022-11-25T16:16:29.555Z,27.80
2022-11-25T16:19:02.526Z,23.27
2022-11-25T16:21:35.545Z,25.90
2022-11-25T16:24:05.507Z,27.92
2022-11-25T16:26:37.031Z,31.02
2022-11-25T16:29:16.575Z,34.38
2022-11-25T16:31:44.234Z,31.13
2022-11-25T16:34:18.924Z,32.10
2022-11-25T16:36:47.269Z,30.30
2022-11-25T16:39:14.731Z,28.70
2022-11-25T16:41:42.883Z,28.02
2022-11-25T16:44:18.938Z,22.90
2022-11-25T16:46:46.629Z,31.48
2022-11-25T16:49:15.891Z,23.75
2022-11-25T16:51:43.210Z,24.83
2022-11-25T16:54:10.678Z,31.17
2022-11-25T16:56:41.226Z,31.58
2022-11-25T16:59:32.036Z,28.30
2022-11-25T17:02:00.644Z,30.67
2022-11-25T17:04:28.012Z,21.77
2022-11-25T17:07:30.679Z,22.05
2022-11-25T17:09:44.276Z,28.80
2022-11-25T17:12:16.991Z,23.35
2022-11-25T17:14:45.176Z,22.05
2022-11-25T17:17:24.469Z,18.23
2022-11-25T17:20:21.536Z,19.05
2022-11-25T17:22:49.191Z,19.42
2022-11-25T17:25:16.779Z,18.45
2022-11-25T17:27:46.273Z,21.45
2022-11-25T17:30:23.398Z,20.98
2022-11-25T17:33:00.841Z,14.85
2022-11-25T17:35:28.394Z,17.73
2022-11-25T17:38:01.644Z,25.90
2022-11-25T17:40:29.068Z,15.75
2022-11-25T17:42:56.383Z,27.27
2022-11-25T17:45:23.819Z,26.30
2022-11-25T17:47:51.156Z,18.65
2022-11-25T17:50:26.066Z,19.27
2022-11-25T17:52:53.580Z,31.65
2022-11-25T17:55:22.775Z,37.70
2022-11-25T17:57:50.457Z,42.03
2022-11-25T18:00:22.630Z,16.67
2022-11-25T18:05:26.720Z,21.52
2022-11-25T18:07:54.140Z,25.95
2022-11-25T18:10:25.664Z,14.40
2022-11-25T18:12:55.519Z,26.73
2022-11-25T18:15:26.575Z,29.17
2022-11-25T18:18:06.835Z,52.75
2022-11-25T18:20:34.301Z,36.38
2022-11-25T18:23:01.758Z,34.30
2022-11-25T18:25:33.982Z,55.17
2022-11-25T18:30:34.843Z,51.42
2022-11-25T18:33:05.428Z,56.20
2022-11-25T18:35:36.485Z,62.08
2022-11-25T18:38:05.216Z,58.63
2022-11-25T18:40:32.827Z,59.40
2022-11-25T18:43:04.710Z,47.97
2022-11-25T18:45:40.463Z,59.20
2022-11-25T18:48:16.092Z,59.92
2022-11-25T18:50:44.437Z,46.88
2022-11-25T18:53:11.855Z,52.45
2022-11-25T18:55:39.451Z,45.22
2022-11-25T18:58:32.682Z,54.55
2022-11-25T19:01:06.063Z,50.28
2022-11-25T19:03:33.097Z,43.15
2022-11-25T19:06:01.756Z,52.50
2022-11-25T19:08:29.639Z,42.05
2022-11-25T19:10:57.162Z,49.50
2022-11-25T19:13:33.174Z,53.08
2022-11-25T19:16:08.355Z,40.33
2022-11-25T19:18:35.963Z,39.75
2022-11-25T19:21:03.188Z,36.90
2022-11-25T19:23:30.538Z,40.28
2022-11-25T19:26:07.540Z,40.63
2022-11-25T19:28:35.228Z,40.25
2022-11-25T19:31:04.777Z,39.17
2022-11-25T19:33:36.829Z,36.63
2022-11-25T19:36:05.440Z,42.53
2022-11-25T19:38:33.125Z,40.05
2022-11-25T19:41:00.430Z,41.47
2022-11-25T19:43:27.976Z,47.53
2022-11-25T19:45:57.164Z,47.63
2022-11-25T19:48:27.119Z,47.85
2022-11-25T19:50:59.892Z,38.72
2022-11-25T19:53:33.106Z,46.22
2022-11-25T19:56:04.822Z,48.65
2022-11-25T19:58:32.185Z,53.67
2022-11-25T20:01:04.447Z,44.08
2022-11-25T20:03:31.863Z,42.53
2022-11-25T20:05:59.274Z,46.30
2022-11-25T20:08:28.888Z,40.70
2022-11-25T20:10:57.350Z,28.98
2022-11-25T20:13:25.986Z,45.55
2022-11-25T20:15:55.489Z,30.10
2022-11-25T20:18:24.555Z,37.70
2022-11-25T20:21:00.806Z,43.33
2022-11-25T20:23:43.759Z,33.05
2022-11-25T20:26:32.342Z,50.95
2022-11-25T20:28:59.304Z,49.75
2022-11-25T20:31:30.558Z,37.35
2022-11-25T20:33:58.094Z,41.72
2022-11-25T20:36:33.292Z,33.10
2022-11-25T20:39:02.572Z,41.25
2022-11-25T20:41:30.664Z,43.80
2022-11-25T20:43:58.534Z,46.45
2022-11-25T20:46:32.095Z,52.92
2022-11-25T20:49:27.433Z,54.30
2022-11-25T20:51:55.596Z,53.83
2022-11-25T20:54:24.534Z,57.38
2022-11-25T20:56:51.889Z,60.85
2022-11-25T20:59:22.962Z,73.65
2022-11-25T21:01:51.093Z,66.65
2022-11-25T21:04:18.559Z,52.33
2022-11-25T21:06:46.336Z,29.40
2022-11-25T21:09:23.367Z,26.83
2022-11-25T21:11:50.741Z,11.68
2022-11-25T21:14:19.910Z,18.33
2022-11-25T21:16:47.744Z,18.23
2022-11-25T21:19:15.242Z,28.00
2022-11-25T21:21:45.991Z,21.33
2022-11-25T21:24:35.305Z,37.15
2022-11-25T21:27:13.946Z,12.93
2022-11-25T21:29:43.348Z,19.52
2022-11-25T21:32:25.389Z,30.58
2022-11-25T21:34:54.866Z,35.60
2022-11-25T21:37:36.600Z,50.97
2022-11-25T21:40:07.901Z,55.03
2022-11-25T21:42:35.276Z,40.80
2022-11-25T21:45:02.234Z,42.45
2022-11-25T21:47:30.702Z,44.88
2022-11-25T21:49:58.528Z,35.88
2022-11-25T21:52:27.520Z,28.60
2022-11-25T21:54:54.696Z,44.05
2022-11-25T21:57:27.906Z,32.88
2022-11-25T21:59:54.863Z,49.45
2022-11-25T22:02:24.056Z,41.08
2022-11-25T22:04:51.820Z,35.20
2022-11-25T22:07:18.883Z,38.70
2022-11-25T22:09:46.275Z,31.02
2022-11-25T22:12:34.310Z,32.67
2022-11-25T22:15:04.337Z,32.85
2022-11-25T22:17:31.374Z,28.88
2022-11-25T22:19:58.728Z,32.05
2022-11-25T22:22:25.652Z,30.58
2022-11-25T22:24:52.729Z,24.58
2022-11-25T22:27:26.191Z,24.80
2022-11-25T22:29:54.125Z,27.85
2022-11-25T22:32:21.674Z,25.02
2022-11-25T22:34:49.068Z,22.38
2022-11-25T22:37:24.146Z,23.92
2022-11-25T22:39:51.373Z,26.83
2022-11-25T22:42:30.986Z,24.52
2022-11-25T22:45:00.904Z,24.42
2022-11-25T22:47:37.570Z,30.00
2022-11-25T22:50:14.447Z,28.38
2022-11-25T22:52:41.746Z,30.52
2022-11-25T22:55:19.735Z,28.25
2022-11-25T22:57:48.327Z,27.02
2022-11-25T23:00:24.516Z,25.85
2022-11-25T23:02:54.750Z,32.03
2022-11-25T23:05:34.983Z,30.23
2022-11-25T23:08:24.152Z,33.38
2022-11-25T23:10:52.876Z,22.67
2022-11-25T23:13:22.864Z,27.00
2022-11-25T23:15:59.587Z,29.48
2022-11-25T23:18:38.132Z,31.42
2022-11-25T23:21:23.973Z,30.55
2022-11-25T23:23:51.125Z,35.22
2022-11-25T23:26:18.498Z,33.22
2022-11-25T23:28:46.023Z,39.20
2022-11-25T23:31:14.975Z,36.00
2022-11-25T23:33:45.235Z,31.55
2022-11-25T23:36:18.889Z,32.42
2022-11-25T23:38:52.027Z,32.17
2022-11-25T23:41:27.882Z,26.60
2022-11-25T23:43:55.358Z,33.83
2022-11-25T23:46:32.766Z,38.50
2022-11-25T23:49:03.286Z,29.42
2022-11-25T23:51:30.908Z,29.88
2022-11-25T23:53:58.730Z,38.47
2022-11-25T23:56:28.090Z,22.65
2022-11-25T23:58:55.028Z,23.45
